Time;durP1;ratioP1;P1;durP2;ratioP2;P2;SDS_P1;SDS_P2;PMS_P1;PMS_P2;Temp;Humidity;BMP_temperature;BMP_pressure;BME280_temperature;BME280_humidity;BME280_pressure;Samples;Min_cycle;Max_cycle;Signal;HPM_P1;HPM_P2
2023/07/30 00:02:00;;;;;;;8.20;4.82;;;;;;;;;;4968464;28;20050;-61
2023/07/30 00:04:27;;;;;;;7.40;4.85;;;;;;;;;;4966542;28;20054;-62
2023/07/30 00:06:53;;;;;;;9.32;4.85;;;;;;;;;;4969788;28;20042;-62
2023/07/30 00:09:19;;;;;;;7.30;4.85;;;;;;;;;;4969149;28;20041;-62
2023/07/30 00:11:46;;;;;;;17.73;5.68;;;;;;;;;;4971008;28;20066;-61
2023/07/30 00:14:12;;;;;;;10.68;5.53;;;;;;;;;;4970782;28;20414;-61
2023/07/30 00:16:38;;;;;;;8.73;5.20;;;;;;;;;;4966759;28;20050;-60
2023/07/30 00:19:04;;;;;;;7.63;4.97;;;;;;;;;;4968139;28;20046;-61
2023/07/30 00:21:30;;;;;;;8.30;5.10;;;;;;;;;;4963227;28;20418;-61
2023/07/30 00:23:56;;;;;;;8.43;4.95;;;;;;;;;;4969296;28;20031;-61
2023/07/30 00:26:26;;;;;;;9.63;4.65;;;;;;;;;;4968457;28;20045;-61
2023/07/30 00:28:52;;;;;;;8.13;5.15;;;;;;;;;;4968836;28;20030;-61
2023/07/30 00:31:18;;;;;;;8.85;5.20;;;;;;;;;;4974184;28;20034;-61
2023/07/30 00:33:44;;;;;;;12.43;5.15;;;;;;;;;;4971288;28;20038;-61
2023/07/30 00:36:10;;;;;;;9.75;5.30;;;;;;;;;;4969140;28;20378;-61
2023/07/30 00:38:38;;;;;;;8.93;4.90;;;;;;;;;;4967946;28;20673;-63
2023/07/30 00:41:04;;;;;;;10.27;5.05;;;;;;;;;;4973759;28;20064;-61
2023/07/30 00:43:30;;;;;;;7.82;4.90;;;;;;;;;;4964247;28;20046;-61
2023/07/30 00:45:56;;;;;;;7.57;5.00;;;;;;;;;;4965806;28;20056;-61
2023/07/30 00:48:22;;;;;;;7.60;5.00;;;;;;;;;;4968063;28;20046;-60
2023/07/30 00:50:48;;;;;;;9.02;5.30;;;;;;;;;;4976656;28;20133;-60
2023/07/30 00:53:17;;;;;;;10.48;5.25;;;;;;;;;;4969714;28;20499;-60
2023/07/30 00:55:44;;;;;;;11.50;5.10;;;;;;;;;;4965509;28;20240;-60
2023/07/30 00:58:10;;;;;;;7.35;4.90;;;;;;;;;;4967233;28;20502;-61
2023/07/30 01:00:36;;;;;;;10.00;5.40;;;;;;;;;;4965479;28;20038;-61
2023/07/30 01:03:03;;;;;;;11.60;4.97;;;;;;;;;;4965787;28;20038;-61
2023/07/30 01:05:29;;;;;;;9.10;5.22;;;;;;;;;;4965818;28;20039;-61
2023/07/30 01:07:55;;;;;;;8.70;5.10;;;;;;;;;;4967285;28;20035;-61
2023/07/30 01:10:22;;;;;;;8.02;5.22;;;;;;;;;;4972903;28;20414;-61
2023/07/30 01:12:50;;;;;;;7.95;4.38;;;;;;;;;;4971000;28;20368;-60
2023/07/30 01:15:16;;;;;;;11.52;5.03;;;;;;;;;;4968966;28;20027;-60
2023/07/30 01:17:42;;;;;;;9.73;5.40;;;;;;;;;;4965131;28;20046;-60
2023/07/30 01:20:10;;;;;;;9.77;4.88;;;;;;;;;;4969738;28;20042;-61
2023/07/30 01:22:36;;;;;;;8.68;4.68;;;;;;;;;;4965341;28;20043;-60
2023/07/30 01:25:03;;;;;;;10.60;4.85;;;;;;;;;;4964680;28;20131;-60
2023/07/30 01:27:33;;;;;;;7.13;4.90;;;;;;;;;;4966921;28;20031;-62
2023/07/30 01:30:14;;;;;;;8.73;5.15;;;;;;;;;;4967138;28;20035;-62
2023/07/30 01:32:41;;;;;;;8.02;5.00;;;;;;;;;;4965814;28;20053;-62
2023/07/30 01:35:08;;;;;;;8.77;4.60;;;;;;;;;;4966612;28;20073;-62
2023/07/30 01:37:36;;;;;;;8.48;5.30;;;;;;;;;;4968557;28;20050;-62
2023/07/30 01:40:03;;;;;;;8.40;4.53;;;;;;;;;;4970208;28;20103;-62
2023/07/30 01:42:30;;;;;;;8.15;4.47;;;;;;;;;;4966501;28;20046;-61
2023/07/30 01:44:56;;;;;;;7.88;4.45;;;;;;;;;;4974865;28;20062;-61
2023/07/30 01:47:22;;;;;;;8.05;4.93;;;;;;;;;;4969782;28;20054;-62
2023/07/30 01:49:48;;;;;;;10.40;5.40;;;;;;;;;;4974208;28;20038;-61
2023/07/30 01:52:15;;;;;;;10.27;4.93;;;;;;;;;;4971655;28;20070;-61
2023/07/30 01:54:42;;;;;;;10.15;4.95;;;;;;;;;;4966618;28;20357;-61
2023/07/30 01:57:08;;;;;;;9.10;4.97;;;;;;;;;;4966434;28;20034;-61
2023/07/30 01:59:34;;;;;;;9.63;5.25;;;;;;;;;;4971140;28;20049;-62
2023/07/30 02:02:00;;;;;;;7.70;4.65;;;;;;;;;;4967915;28;20046;-62
2023/07/30 02:04:26;;;;;;;8.95;4.47;;;;;;;;;;4973737;28;20125;-61
2023/07/30 02:06:52;;;;;;;6.90;4.75;;;;;;;;;;4974909;28;20529;-62
2023/07/30 02:09:19;;;;;;;9.88;4.85;;;;;;;;;;4969326;28;20522;-61
2023/07/30 02:11:45;;;;;;;9.23;5.03;;;;;;;;;;4971385;28;20061;-61
2023/07/30 02:14:14;;;;;;;7.90;5.07;;;;;;;;;;4956854;28;20658;-62
2023/07/30 02:16:40;;;;;;;8.10;4.75;;;;;;;;;;4968141;28;20518;-61
2023/07/30 02:19:07;;;;;;;11.35;5.60;;;;;;;;;;4978245;28;20394;-62
2023/07/30 02:21:36;;;;;;;9.75;5.35;;;;;;;;;;4969958;28;20058;-61
2023/07/30 02:24:02;;;;;;;9.27;5.40;;;;;;;;;;4970049;28;20058;-62
2023/07/30 02:26:28;;;;;;;9.63;5.03;;;;;;;;;;4970573;28;20030;-61
2023/07/30 02:28:54;;;;;;;8.57;5.22;;;;;;;;;;4972749;28;20058;-62
2023/07/30 02:31:21;;;;;;;8.55;4.90;;;;;;;;;;4971436;28;20413;-61
2023/07/30 02:33:47;;;;;;;8.02;4.65;;;;;;;;;;4972535;28;20049;-61
2023/07/30 02:36:13;;;;;;;9.15;4.47;;;;;;;;;;4976058;28;20513;-61
2023/07/30 02:38:39;;;;;;;8.68;5.30;;;;;;;;;;4973063;28;20059;-61
2023/07/30 02:41:05;;;;;;;9.68;4.68;;;;;;;;;;4975126;28;20039;-61
2023/07/30 02:43:31;;;;;;;8.07;4.60;;;;;;;;;;4971470;28;20643;-61
2023/07/30 02:45:57;;;;;;;10.55;5.35;;;;;;;;;;4973272;28;20644;-61
2023/07/30 02:48:23;;;;;;;8.38;4.45;;;;;;;;;;4974383;28;20038;-61
2023/07/30 02:50:49;;;;;;;11.93;5.82;;;;;;;;;;4971968;28;20077;-61
2023/07/30 02:53:15;;;;;;;9.50;4.82;;;;;;;;;;4969960;28;20078;-61
2023/07/30 02:55:41;;;;;;;10.20;5.10;;;;;;;;;;4969011;28;20061;-61
2023/07/30 02:58:07;;;;;;;8.95;5.15;;;;;;;;;;4952642;28;20495;-61
2023/07/30 03:00:33;;;;;;;10.02;5.07;;;;;;;;;;4969821;28;20030;-61
2023/07/30 03:02:59;;;;;;;7.40;4.55;;;;;;;;;;4968622;28;20039;-61
2023/07/30 03:05:28;;;;;;;10.57;4.78;;;;;;;;;;4971787;28;20046;-62
2023/07/30 03:07:54;;;;;;;7.15;4.43;;;;;;;;;;4971789;28;20058;-61
2023/07/30 03:10:21;;;;;;;11.93;4.68;;;;;;;;;;4975032;28;20046;-61
2023/07/30 03:12:47;;;;;;;13.15;5.40;;;;;;;;;;4966897;28;20047;-62
2023/07/30 03:15:13;;;;;;;9.20;5.15;;;;;;;;;;4975210;28;20043;-62
2023/07/30 03:17:39;;;;;;;8.80;4.72;;;;;;;;;;4963524;28;20065;-62
2023/07/30 03:20:06;;;;;;;10.43;4.82;;;;;;;;;;4972208;28;20051;-61
2023/07/30 03:22:32;;;;;;;7.82;4.25;;;;;;;;;;4969373;28;20054;-61
2023/07/30 03:24:58;;;;;;;7.68;4.43;;;;;;;;;;4972330;28;20046;-62
2023/07/30 03:27:24;;;;;;;9.65;4.65;;;;;;;;;;4966899;28;20050;-62
2023/07/30 03:29:50;;;;;;;7.95;4.35;;;;;;;;;;4968487;28;20042;-61
2023/07/30 03:32:17;;;;;;;6.88;4.10;;;;;;;;;;4971074;28;20053;-61
2023/07/30 03:34:43;;;;;;;9.13;4.15;;;;;;;;;;4975181;28;20499;-61
2023/07/30 03:37:09;;;;;;;9.68;4.78;;;;;;;;;;4978253;28;20034;-62
2023/07/30 03:39:35;;;;;;;7.85;4.53;;;;;;;;;;4975540;28;20038;-61
2023/07/30 03:42:01;;;;;;;12.90;4.82;;;;;;;;;;4973770;28;20058;-61
2023/07/30 03:44:27;;;;;;;7.65;4.57;;;;;;;;;;4972207;28;20038;-61
2023/07/30 03:46:54;;;;;;;7.82;4.53;;;;;;;;;;4973989;28;20042;-61
2023/07/30 03:49:20;;;;;;;9.45;4.65;;;;;;;;;;4971172;28;20055;-61
2023/07/30 03:51:47;;;;;;;7.95;4.63;;;;;;;;;;4951597;28;20054;-61
2023/07/30 03:54:13;;;;;;;8.05;4.40;;;;;;;;;;4969022;28;20062;-61
2023/07/30 03:56:39;;;;;;;7.90;4.00;;;;;;;;;;4968261;28;20046;-62
2023/07/30 03:59:05;;;;;;;6.80;3.92;;;;;;;;;;4968722;28;20410;-61
2023/07/30 04:01:31;;;;;;;6.43;3.90;;;;;;;;;;4967984;28;20418;-62
2023/07/30 04:03:57;;;;;;;7.85;4.40;;;;;;;;;;4966386;28;20058;-61
2023/07/30 04:06:23;;;;;;;7.70;4.20;;;;;;;;;;4968759;28;20030;-61
2023/07/30 04:08:49;;;;;;;7.75;3.92;;;;;;;;;;4973381;28;20038;-61
2023/07/30 04:11:15;;;;;;;7.75;3.80;;;;;;;;;;4975250;28;20054;-61
2023/07/30 04:13:42;;;;;;;7.95;4.13;;;;;;;;;;4966460;28;20049;-61
2023/07/30 04:16:08;;;;;;;6.82;4.13;;;;;;;;;;4969430;28;20406;-61
2023/07/30 04:18:34;;;;;;;6.80;3.85;;;;;;;;;;4967483;28;20038;-60
2023/07/30 04:21:00;;;;;;;7.75;4.80;;;;;;;;;;4971318;28;20042;-60
2023/07/30 04:23:26;;;;;;;10.23;4.50;;;;;;;;;;4968184;28;20038;-60
2023/07/30 04:25:52;;;;;;;6.22;4.00;;;;;;;;;;4969879;28;20039;-60
2023/07/30 04:28:18;;;;;;;8.10;4.57;;;;;;;;;;4968539;28;20050;-61
2023/07/30 04:30:46;;;;;;;6.38;4.18;;;;;;;;;;4971223;28;20675;-61
2023/07/30 04:33:14;;;;;;;6.78;3.90;;;;;;;;;;4971568;28;20035;-61
2023/07/30 04:35:40;;;;;;;6.95;4.10;;;;;;;;;;4967900;28;20062;-61
2023/07/30 04:38:07;;;;;;;5.47;3.72;;;;;;;;;;4971056;28;20066;-61
2023/07/30 04:40:33;;;;;;;7.63;4.25;;;;;;;;;;4967634;28;20039;-61
2023/07/30 04:42:59;;;;;;;7.32;4.10;;;;;;;;;;4968727;28;20053;-61
2023/07/30 04:45:25;;;;;;;5.57;3.88;;;;;;;;;;4968926;28;20049;-61
2023/07/30 04:47:52;;;;;;;8.65;4.63;;;;;;;;;;4968697;28;20066;-61
2023/07/30 04:50:18;;;;;;;6.35;4.07;;;;;;;;;;4968806;28;20089;-60
2023/07/30 04:52:44;;;;;;;7.68;4.57;;;;;;;;;;4970706;28;20054;-61
2023/07/30 04:55:10;;;;;;;9.30;4.47;;;;;;;;;;4969204;28;20069;-60
2023/07/30 04:57:36;;;;;;;6.50;3.95;;;;;;;;;;4969108;28;20055;-62
2023/07/30 05:00:03;;;;;;;7.18;3.95;;;;;;;;;;4972464;28;20035;-61
2023/07/30 05:02:30;;;;;;;7.65;4.32;;;;;;;;;;4966089;28;20054;-61
2023/07/30 05:04:56;;;;;;;5.97;3.70;;;;;;;;;;4972590;28;20061;-61
2023/07/30 05:07:22;;;;;;;6.63;3.70;;;;;;;;;;4967018;28;20035;-61
2023/07/30 05:09:48;;;;;;;4.75;3.40;;;;;;;;;;4973382;28;20039;-60
2023/07/30 05:12:14;;;;;;;7.38;3.70;;;;;;;;;;4970525;28;20050;-61
2023/07/30 05:14:40;;;;;;;7.30;3.80;;;;;;;;;;4969709;28;20035;-61
2023/07/30 05:17:06;;;;;;;7.93;4.60;;;;;;;;;;4970273;28;20425;-61
2023/07/30 05:19:33;;;;;;;10.90;5.35;;;;;;;;;;4966258;28;20049;-61
2023/07/30 05:22:01;;;;;;;6.30;4.07;;;;;;;;;;4967239;28;20035;-61
2023/07/30 05:24:27;;;;;;;8.88;4.20;;;;;;;;;;4968506;28;20031;-60
2023/07/30 05:26:53;;;;;;;6.05;3.80;;;;;;;;;;4969504;28;20061;-60
2023/07/30 05:29:20;;;;;;;5.20;3.50;;;;;;;;;;4968539;28;20533;-61
2023/07/30 05:31:46;;;;;;;5.32;3.50;;;;;;;;;;4969962;28;20043;-61
2023/07/30 05:34:12;;;;;;;8.07;3.85;;;;;;;;;;4969551;28;20522;-61
2023/07/30 05:36:38;;;;;;;7.75;4.18;;;;;;;;;;4968172;28;20031;-60
2023/07/30 05:39:04;;;;;;;7.93;3.72;;;;;;;;;;4968631;28;20426;-60
2023/07/30 05:41:30;;;;;;;14.23;4.25;;;;;;;;;;4968289;28;20419;-62
2023/07/30 05:43:56;;;;;;;5.57;3.58;;;;;;;;;;4971302;28;20034;-61
2023/07/30 05:46:22;;;;;;;8.52;3.90;;;;;;;;;;4970185;28;20045;-61
2023/07/30 05:48:48;;;;;;;6.43;3.53;;;;;;;;;;4967899;28;20035;-61
2023/07/30 05:51:14;;;;;;;5.95;3.63;;;;;;;;;;4964494;28;20050;-60
2023/07/30 05:53:40;;;;;;;6.15;3.45;;;;;;;;;;4965811;28;20042;-60
2023/07/30 05:56:06;;;;;;;6.40;3.80;;;;;;;;;;4967233;28;20038;-61
2023/07/30 05:58:32;;;;;;;7.22;4.10;;;;;;;;;;4964002;28;20503;-61
2023/07/30 06:00:58;;;;;;;7.38;3.92;;;;;;;;;;4968120;28;20402;-61
2023/07/30 06:03:24;;;;;;;8.50;4.10;;;;;;;;;;4965169;28;20043;-60
2023/07/30 06:05:51;;;;;;;7.38;3.40;;;;;;;;;;4967788;28;20054;-61
2023/07/30 06:08:17;;;;;;;6.75;3.85;;;;;;;;;;4965719;28;20042;-61
2023/07/30 06:10:43;;;;;;;6.13;4.00;;;;;;;;;;4967346;28;20618;-60
2023/07/30 06:13:09;;;;;;;6.22;4.05;;;;;;;;;;4969743;28;20057;-61
2023/07/30 06:15:35;;;;;;;7.22;4.25;;;;;;;;;;4967257;28;20367;-61
2023/07/30 06:18:03;;;;;;;7.15;3.58;;;;;;;;;;4969792;28;20043;-61
2023/07/30 06:20:29;;;;;;;6.65;3.90;;;;;;;;;;4964248;28;20035;-60
2023/07/30 06:22:55;;;;;;;7.53;3.97;;;;;;;;;;4969571;28;20380;-60
2023/07/30 06:25:21;;;;;;;5.93;4.32;;;;;;;;;;4950686;28;20565;-60
2023/07/30 06:27:47;;;;;;;7.65;4.13;;;;;;;;;;4966319;28;20035;-61
2023/07/30 06:30:13;;;;;;;6.22;4.10;;;;;;;;;;4968238;28;20035;-60
2023/07/30 06:32:39;;;;;;;6.38;4.05;;;;;;;;;;4969032;28;20067;-60
2023/07/30 06:35:06;;;;;;;7.07;4.22;;;;;;;;;;4974578;28;20517;-60
2023/07/30 06:37:32;;;;;;;6.18;3.63;;;;;;;;;;4967268;28;20521;-61
2023/07/30 06:39:58;;;;;;;7.72;4.20;;;;;;;;;;4969625;28;20035;-60
2023/07/30 06:42:25;;;;;;;7.40;4.32;;;;;;;;;;4967493;28;20547;-60
2023/07/30 06:44:51;;;;;;;6.10;3.78;;;;;;;;;;4965810;28;20046;-61
2023/07/30 06:47:17;;;;;;;10.38;4.78;;;;;;;;;;4967885;28;20057;-60
2023/07/30 06:49:43;;;;;;;6.97;4.00;;;;;;;;;;4970431;28;20045;-59
2023/07/30 06:52:09;;;;;;;7.47;4.18;;;;;;;;;;4969746;28;20403;-58
2023/07/30 06:54:35;;;;;;;7.75;4.82;;;;;;;;;;4968556;28;20037;-58
2023/07/30 06:57:02;;;;;;;7.25;3.83;;;;;;;;;;4970462;28;20046;-58
2023/07/30 06:59:28;;;;;;;6.72;3.80;;;;;;;;;;4969007;28;20035;-58
2023/07/30 07:01:54;;;;;;;5.97;3.92;;;;;;;;;;4969930;28;20039;-60
2023/07/30 07:04:20;;;;;;;9.80;3.95;;;;;;;;;;4970523;28;20424;-59
2023/07/30 07:06:46;;;;;;;5.68;3.53;;;;;;;;;;4969845;28;20057;-61
2023/07/30 07:09:12;;;;;;;6.32;3.70;;;;;;;;;;4967875;28;20058;-63
2023/07/30 07:11:39;;;;;;;10.82;3.65;;;;;;;;;;4972904;28;22608;-63
2023/07/30 07:14:05;;;;;;;6.90;3.40;;;;;;;;;;4971330;28;20061;-62
2023/07/30 07:16:31;;;;;;;6.10;3.42;;;;;;;;;;4966684;28;20049;-60
2023/07/30 07:18:57;;;;;;;6.38;3.28;;;;;;;;;;4969154;28;20050;-59
2023/07/30 07:21:23;;;;;;;5.07;3.17;;;;;;;;;;4970917;28;20057;-59
2023/07/30 07:23:49;;;;;;;6.45;3.20;;;;;;;;;;4971639;28;20051;-59
2023/07/30 07:26:15;;;;;;;5.10;3.30;;;;;;;;;;4973286;28;20030;-58
2023/07/30 07:28:41;;;;;;;5.53;3.15;;;;;;;;;;4967453;28;20054;-60
2023/07/30 07:31:07;;;;;;;5.55;3.17;;;;;;;;;;4971831;28;20132;-60
2023/07/30 07:33:34;;;;;;;5.78;3.10;;;;;;;;;;4970455;28;20415;-61
2023/07/30 07:36:08;;;;;;;9.98;3.33;;;;;;;;;;4979222;28;20054;-61
2023/07/30 07:38:35;;;;;;;5.45;3.17;;;;;;;;;;4971311;28;20059;-61
2023/07/30 07:41:01;;;;;;;5.93;3.55;;;;;;;;;;4971184;28;20035;-60
2023/07/30 07:43:28;;;;;;;5.18;3.13;;;;;;;;;;4969474;28;20069;-60
2023/07/30 07:45:54;;;;;;;7.88;3.67;;;;;;;;;;4970830;28;20057;-60
2023/07/30 07:48:20;;;;;;;5.60;3.55;;;;;;;;;;4968353;28;20046;-60
2023/07/30 07:50:46;;;;;;;8.88;3.45;;;;;;;;;;4971699;28;20403;-59
2023/07/30 07:53:12;;;;;;;6.05;3.20;;;;;;;;;;4968033;28;20031;-61
2023/07/30 07:55:38;;;;;;;11.10;3.00;;;;;;;;;;4969329;28;20066;-59
2023/07/30 07:58:04;;;;;;;6.03;2.50;;;;;;;;;;4964757;28;20042;-60
2023/07/30 08:00:30;;;;;;;5.57;2.95;;;;;;;;;;4973048;28;20513;-60
2023/07/30 08:02:56;;;;;;;5.60;2.80;;;;;;;;;;4974607;28;20030;-59
2023/07/30 08:05:24;;;;;;;5.70;2.70;;;;;;;;;;4969636;28;20086;-59
2023/07/30 08:07:50;;;;;;;5.05;2.92;;;;;;;;;;4970919;28;20054;-60
2023/07/30 08:10:16;;;;;;;9.25;2.50;;;;;;;;;;4969526;28;20031;-61
2023/07/30 08:12:42;;;;;;;7.65;2.95;;;;;;;;;;4967693;28;20533;-60
2023/07/30 08:15:09;;;;;;;6.88;2.58;;;;;;;;;;4970977;28;20035;-60
2023/07/30 08:17:35;;;;;;;4.05;2.28;;;;;;;;;;4969079;28;20039;-60
2023/07/30 08:20:01;;;;;;;5.05;2.55;;;;;;;;;;4968854;28;20031;-60
2023/07/30 08:22:27;;;;;;;7.50;3.60;;;;;;;;;;4972130;28;20049;-60
2023/07/30 08:24:53;;;;;;;4.97;2.63;;;;;;;;;;4974901;28;20044;-60
2023/07/30 08:27:19;;;;;;;4.32;2.65;;;;;;;;;;4971475;28;20038;-60
2023/07/30 08:29:45;;;;;;;7.80;4.80;;;;;;;;;;4975609;28;20518;-59
2023/07/30 08:32:11;;;;;;;6.40;3.53;;;;;;;;;;4973239;28;20035;-60
2023/07/30 08:34:38;;;;;;;5.50;3.28;;;;;;;;;;4970004;28;20042;-60
2023/07/30 08:37:04;;;;;;;7.45;2.78;;;;;;;;;;4968680;28;20043;-59
2023/07/30 08:39:30;;;;;;;4.90;3.50;;;;;;;;;;4968001;28;20049;-59
2023/07/30 08:41:56;;;;;;;6.68;2.80;;;;;;;;;;4972204;28;20043;-60
2023/07/30 08:44:22;;;;;;;5.63;2.65;;;;;;;;;;4969273;28;20046;-60
2023/07/30 08:46:49;;;;;;;4.05;2.67;;;;;;;;;;4976817;28;20414;-61
2023/07/30 08:49:15;;;;;;;5.43;3.15;;;;;;;;;;4973180;28;20046;-61
2023/07/30 08:51:42;;;;;;;7.47;2.83;;;;;;;;;;4968808;28;20042;-60
2023/07/30 08:54:10;;;;;;;3.58;2.40;;;;;;;;;;4968874;28;20046;-61
2023/07/30 08:56:36;;;;;;;3.88;2.78;;;;;;;;;;4967345;28;20050;-61
2023/07/30 08:59:03;;;;;;;6.68;3.00;;;;;;;;;;4967690;28;20462;-61
2023/07/30 09:01:33;;;;;;;3.67;2.40;;;;;;;;;;4969160;28;20035;-61
2023/07/30 09:04:00;;;;;;;6.50;3.17;;;;;;;;;;4968305;28;20047;-61
2023/07/30 09:06:26;;;;;;;6.05;3.03;;;;;;;;;;4971363;28;20089;-60
2023/07/30 09:08:52;;;;;;;9.63;5.00;;;;;;;;;;4968475;28;20042;-61
2023/07/30 09:11:20;;;;;;;12.63;7.05;;;;;;;;;;4965210;28;20042;-61
2023/07/30 09:13:46;;;;;;;7.55;3.92;;;;;;;;;;4967878;28;20042;-61
2023/07/30 09:16:14;;;;;;;4.32;2.85;;;;;;;;;;4969670;28;20042;-61
2023/07/30 09:18:46;;;;;;;5.25;2.90;;;;;;;;;;4972909;28;20053;-61
2023/07/30 09:21:13;;;;;;;4.47;2.60;;;;;;;;;;4964302;28;20038;-62
2023/07/30 09:23:44;;;;;;;5.43;3.22;;;;;;;;;;4967127;28;20050;-62
2023/07/30 09:26:10;;;;;;;8.30;3.22;;;;;;;;;;4973013;28;20049;-60
2023/07/30 09:28:37;;;;;;;5.95;3.45;;;;;;;;;;4966582;28;20628;-61
2023/07/30 09:31:06;;;;;;;5.68;3.58;;;;;;;;;;4970864;28;20053;-61
2023/07/30 09:33:34;;;;;;;6.53;3.42;;;;;;;;;;4964067;28;20145;-62
2023/07/30 09:36:04;;;;;;;8.90;3.00;;;;;;;;;;4967440;28;20042;-60
2023/07/30 09:38:32;;;;;;;6.55;3.30;;;;;;;;;;4968920;28;20050;-60
2023/07/30 09:41:02;;;;;;;7.47;3.10;;;;;;;;;;4977760;28;20033;-60
2023/07/30 09:43:32;;;;;;;4.60;2.90;;;;;;;;;;4969770;28;20038;-60
2023/07/30 09:46:06;;;;;;;5.30;3.20;;;;;;;;;;4966604;28;20047;-59
2023/07/30 09:48:34;;;;;;;5.43;3.33;;;;;;;;;;4961802;28;20042;-60
2023/07/30 09:51:05;;;;;;;5.32;3.45;;;;;;;;;;4966763;28;20035;-60
2023/07/30 09:53:34;;;;;;;4.65;3.10;;;;;;;;;;4963057;28;20046;-59
2023/07/30 09:56:05;;;;;;;6.35;3.75;;;;;;;;;;4968752;28;20038;-60
2023/07/30 09:58:32;;;;;;;6.47;3.67;;;;;;;;;;4967862;28;20585;-60
2023/07/30 10:01:00;;;;;;;5.40;3.40;;;;;;;;;;4969580;28;20043;-60
2023/07/30 10:03:29;;;;;;;5.60;2.97;;;;;;;;;;4969530;28;20038;-59
2023/07/30 10:06:05;;;;;;;5.65;3.17;;;;;;;;;;4970839;28;20038;-61
2023/07/30 10:08:39;;;;;;;4.00;2.72;;;;;;;;;;4966572;28;20050;-61
2023/07/30 10:11:08;;;;;;;4.82;3.03;;;;;;;;;;4973381;28;20057;-61
2023/07/30 10:13:35;;;;;;;3.63;2.40;;;;;;;;;;4965078;28;20043;-61
2023/07/30 10:16:01;;;;;;;4.45;2.60;;;;;;;;;;4967450;28;20038;-61
2023/07/30 10:18:42;;;;;;;6.07;3.10;;;;;;;;;;4967741;28;20031;-63
2023/07/30 10:21:10;;;;;;;8.35;3.22;;;;;;;;;;4968424;28;20050;-60
2023/07/30 10:23:46;;;;;;;10.30;3.28;;;;;;;;;;4970760;28;20066;-61
2023/07/30 10:26:12;;;;;;;4.40;2.60;;;;;;;;;;4972206;28;20027;-61
2023/07/30 10:28:43;;;;;;;3.40;2.47;;;;;;;;;;4973989;28;20045;-61
2023/07/30 10:31:11;;;;;;;5.60;2.60;;;;;;;;;;4973886;28;20030;-62
2023/07/30 10:33:45;;;;;;;8.65;3.17;;;;;;;;;;4970133;28;20053;-60
2023/07/30 10:36:11;;;;;;;7.32;3.75;;;;;;;;;;4972317;28;20088;-62
2023/07/30 10:38:39;;;;;;;7.57;3.10;;;;;;;;;;4971324;28;20422;-61
2023/07/30 10:41:09;;;;;;;9.65;3.17;;;;;;;;;;4977940;28;20111;-61
2023/07/30 10:43:40;;;;;;;4.57;2.75;;;;;;;;;;4968563;28;20035;-61
2023/07/30 10:46:09;;;;;;;7.28;3.13;;;;;;;;;;4971760;28;20038;-60
2023/07/30 10:48:37;;;;;;;;;;;;;;;;;;4967285;28;20042;-62
2023/07/30 10:51:08;;;;;;;5.97;2.83;;;;;;;;;;4966955;28;19914;-61
2023/07/30 10:53:36;;;;;;;6.00;3.10;;;;;;;;;;4971215;28;20205;-61
2023/07/30 10:56:04;;;;;;;4.43;2.92;;;;;;;;;;4971330;28;20394;-61
2023/07/30 10:58:32;;;;;;;4.97;3.03;;;;;;;;;;4970374;28;20041;-62
2023/07/30 11:00:59;;;;;;;6.07;3.42;;;;;;;;;;4971505;28;20049;-61
2023/07/30 11:03:26;;;;;;;9.20;3.80;;;;;;;;;;4973432;28;20035;-61
2023/07/30 11:05:54;;;;;;;6.55;3.88;;;;;;;;;;4969274;28;20038;-62
2023/07/30 11:08:42;;;;;;;8.23;3.70;;;;;;;;;;4973386;28;20053;-62
2023/07/30 11:11:10;;;;;;;6.72;3.80;;;;;;;;;;4970633;28;20426;-62
2023/07/30 11:13:40;;;;;;;5.97;3.85;;;;;;;;;;4970412;28;20054;-61
2023/07/30 11:16:08;;;;;;;11.00;5.57;;;;;;;;;;4972399;28;20521;-60
2023/07/30 11:18:36;;;;;;;4.75;3.08;;;;;;;;;;4967324;28;20046;-61
2023/07/30 11:21:06;;;;;;;11.70;4.40;;;;;;;;;;4971455;28;20398;-62
2023/07/30 11:23:33;;;;;;;8.18;4.13;;;;;;;;;;4967593;28;20034;-61
2023/07/30 11:26:02;;;;;;;8.38;3.88;;;;;;;;;;4979531;28;20830;-61
2023/07/30 11:28:32;;;;;;;6.80;4.47;;;;;;;;;;4970369;28;20030;-62
2023/07/30 11:31:00;;;;;;;8.60;4.25;;;;;;;;;;4975764;28;20057;-62
2023/07/30 11:33:30;;;;;;;7.38;3.92;;;;;;;;;;4968980;28;20045;-61
2023/07/30 11:35:56;;;;;;;6.68;3.33;;;;;;;;;;4971552;28;20263;-62
2023/07/30 11:38:24;;;;;;;6.43;3.70;;;;;;;;;;4969735;28;20050;-61
2023/07/30 11:40:54;;;;;;;10.40;2.97;;;;;;;;;;4969454;28;20050;-61
2023/07/30 11:43:22;;;;;;;5.97;3.45;;;;;;;;;;4967920;28;20541;-62
2023/07/30 11:45:49;;;;;;;6.07;3.20;;;;;;;;;;4968523;28;20051;-62
2023/07/30 11:48:15;;;;;;;6.35;3.03;;;;;;;;;;4969062;28;20046;-61
2023/07/30 11:50:46;;;;;;;7.78;3.42;;;;;;;;;;4966863;28;20054;-63
2023/07/30 11:53:13;;;;;;;5.90;3.22;;;;;;;;;;4968920;28;20042;-62
2023/07/30 11:55:40;;;;;;;4.47;2.88;;;;;;;;;;4971336;28;20511;-64
2023/07/30 11:58:07;;;;;;;5.25;3.15;;;;;;;;;;4970528;28;20049;-62
2023/07/30 12:00:34;;;;;;;5.47;3.03;;;;;;;;;;4968353;28;20045;-63
2023/07/30 12:03:03;;;;;;;4.95;2.92;;;;;;;;;;4968158;28;20058;-62
2023/07/30 12:05:37;;;;;;;4.75;2.90;;;;;;;;;;4966719;28;20041;-62
2023/07/30 12:08:07;;;;;;;4.95;3.08;;;;;;;;;;4968547;28;20696;-63
2023/07/30 12:10:47;;;;;;;11.18;3.35;;;;;;;;;;4968342;28;20054;-65
2023/07/30 12:13:18;;;;;;;6.43;3.28;;;;;;;;;;4971195;28;20049;-62
2023/07/30 12:15:52;;;;;;;8.25;3.53;;;;;;;;;;4970231;28;20042;-61
2023/07/30 12:18:19;;;;;;;5.88;2.75;;;;;;;;;;4969758;28;20050;-63
2023/07/30 12:20:47;;;;;;;6.00;3.15;;;;;;;;;;4971055;28;20372;-64
2023/07/30 12:23:20;;;;;;;5.93;2.97;;;;;;;;;;4971845;28;20038;-63
2023/07/30 12:25:47;;;;;;;6.63;3.20;;;;;;;;;;4970339;28;20410;-62
2023/07/30 12:28:13;;;;;;;6.53;2.90;;;;;;;;;;4975971;28;20034;-60
2023/07/30 12:30:39;;;;;;;6.20;2.80;;;;;;;;;;4974496;28;20046;-61
2023/07/30 12:33:06;;;;;;;5.03;2.97;;;;;;;;;;4969681;28;20394;-60
2023/07/30 12:35:32;;;;;;;4.15;2.90;;;;;;;;;;4973663;28;20034;-60
2023/07/30 12:38:00;;;;;;;4.25;2.72;;;;;;;;;;4976759;28;20037;-60
2023/07/30 12:40:29;;;;;;;3.97;2.78;;;;;;;;;;4973099;28;20030;-60
2023/07/30 12:42:55;;;;;;;5.97;2.70;;;;;;;;;;4967449;28;20846;-61
2023/07/30 12:45:21;;;;;;;5.82;2.85;;;;;;;;;;4967932;28;20053;-60
2023/07/30 12:47:47;;;;;;;5.32;2.85;;;;;;;;;;4968955;28;20058;-63
2023/07/30 12:50:14;;;;;;;6.13;2.90;;;;;;;;;;4967718;28;20050;-64
2023/07/30 12:52:40;;;;;;;3.67;2.83;;;;;;;;;;4968159;28;20046;-63
2023/07/30 12:55:06;;;;;;;4.82;2.70;;;;;;;;;;4970008;28;20035;-63
2023/07/30 12:57:33;;;;;;;4.30;2.40;;;;;;;;;;4967111;28;20510;-63
2023/07/30 12:59:59;;;;;;;7.13;2.60;;;;;;;;;;4969432;28;20034;-63
2023/07/30 13:02:25;;;;;;;4.95;2.67;;;;;;;;;;4965774;28;20034;-63
2023/07/30 13:04:51;;;;;;;4.38;2.70;;;;;;;;;;4967647;28;20510;-63
2023/07/30 13:07:17;;;;;;;4.75;2.90;;;;;;;;;;4967886;28;20666;-63
2023/07/30 13:09:45;;;;;;;4.82;2.70;;;;;;;;;;4968331;28;20066;-63
2023/07/30 13:12:11;;;;;;;4.18;2.42;;;;;;;;;;4970488;28;20035;-62
2023/07/30 13:14:38;;;;;;;6.00;2.80;;;;;;;;;;4968199;28;20039;-64
2023/07/30 13:17:04;;;;;;;3.60;2.75;;;;;;;;;;4968507;28;20027;-64
2023/07/30 13:19:32;;;;;;;4.50;2.53;;;;;;;;;;4969421;28;20050;-62
2023/07/30 13:21:58;;;;;;;4.60;2.40;;;;;;;;;;4968561;28;20051;-64
2023/07/30 13:24:24;;;;;;;4.20;2.63;;;;;;;;;;4964629;28;20035;-64
2023/07/30 13:26:50;;;;;;;4.43;2.33;;;;;;;;;;4963393;28;20038;-60
2023/07/30 13:29:16;;;;;;;5.22;2.60;;;;;;;;;;4962163;28;20043;-64
2023/07/30 13:31:42;;;;;;;9.00;2.67;;;;;;;;;;4967343;28;20062;-64
2023/07/30 13:34:08;;;;;;;4.85;2.60;;;;;;;;;;4968713;28;20047;-63
2023/07/30 13:36:34;;;;;;;15.52;3.10;;;;;;;;;;4968960;28;20399;-64
2023/07/30 13:39:00;;;;;;;11.57;3.20;;;;;;;;;;4967437;28;20061;-64
2023/07/30 13:41:26;;;;;;;7.32;2.83;;;;;;;;;;4966072;28;20034;-65
2023/07/30 13:43:52;;;;;;;4.90;3.05;;;;;;;;;;4967228;28;20038;-64
2023/07/30 13:46:18;;;;;;;5.28;2.75;;;;;;;;;;4969953;28;20046;-64
2023/07/30 13:48:44;;;;;;;5.55;2.75;;;;;;;;;;4967117;28;20046;-63
2023/07/30 13:51:11;;;;;;;5.10;2.70;;;;;;;;;;4967624;28;20035;-64
2023/07/30 13:53:40;;;;;;;5.20;2.67;;;;;;;;;;4959845;28;20035;-64
2023/07/30 13:56:07;;;;;;;7.75;3.20;;;;;;;;;;4967878;28;20041;-62
2023/07/30 13:58:33;;;;;;;7.57;2.80;;;;;;;;;;4961540;28;20042;-64
2023/07/30 14:00:59;;;;;;;5.40;3.00;;;;;;;;;;4971305;28;20111;-63
2023/07/30 14:03:25;;;;;;;7.15;3.22;;;;;;;;;;4963788;28;20039;-62
2023/07/30 14:05:51;;;;;;;5.90;2.72;;;;;;;;;;4966736;28;20415;-63
2023/07/30 14:08:17;;;;;;;4.97;2.97;;;;;;;;;;4970368;28;20574;-62
2023/07/30 14:10:44;;;;;;;5.82;2.83;;;;;;;;;;4966514;28;20030;-63
2023/07/30 14:13:10;;;;;;;6.50;3.10;;;;;;;;;;4968790;28;20062;-63
2023/07/30 14:15:36;;;;;;;5.60;3.25;;;;;;;;;;4967389;28;20055;-63
2023/07/30 14:18:02;;;;;;;3.80;2.92;;;;;;;;;;4967150;28;20035;-63
2023/07/30 14:20:28;;;;;;;4.05;2.70;;;;;;;;;;4964055;28;20062;-62
2023/07/30 14:22:54;;;;;;;4.50;2.63;;;;;;;;;;4975454;28;20046;-62
2023/07/30 14:25:20;;;;;;;4.82;2.50;;;;;;;;;;4966127;28;20057;-62
2023/07/30 14:27:46;;;;;;;5.57;3.00;;;;;;;;;;4965396;28;20043;-62
2023/07/30 14:30:12;;;;;;;6.22;2.65;;;;;;;;;;4967041;28;20030;-64
2023/07/30 14:32:38;;;;;;;7.10;2.78;;;;;;;;;;4965971;28;20309;-64
2023/07/30 14:35:05;;;;;;;5.10;2.53;;;;;;;;;;4968915;28;20050;-64
2023/07/30 14:37:31;;;;;;;4.40;2.67;;;;;;;;;;4967101;28;20537;-64
2023/07/30 14:39:57;;;;;;;4.50;2.63;;;;;;;;;;4966897;28;20034;-64
2023/07/30 14:42:23;;;;;;;6.78;2.90;;;;;;;;;;4964660;28;20038;-63